createdAt,value
2023-03-05T00:00:31.644Z,60
2023-03-05T00:01:31.630Z,60
2023-03-05T00:02:31.088Z,60
2023-03-05T00:03:31.702Z,60
2023-03-05T00:04:31.617Z,60
2023-03-05T00:05:31.601Z,60
2023-03-05T00:06:30.965Z,60
2023-03-05T00:07:31.590Z,60
2023-03-05T00:08:31.657Z,60
2023-03-05T00:09:31.591Z,60
2023-03-05T00:10:31.272Z,60
2023-03-05T00:11:31.775Z,60
2023-03-05T00:12:31.614Z,60
2023-03-05T00:13:31.616Z,60
2023-03-05T00:14:30.945Z,60
2023-03-05T00:15:31.602Z,60
2023-03-05T00:16:31.689Z,60
2023-03-05T00:17:31.597Z,60
2023-03-05T00:18:30.980Z,60
2023-03-05T00:19:31.602Z,60
2023-03-05T00:20:31.620Z,60
2023-03-05T00:21:31.625Z,61
2023-03-05T00:22:30.962Z,61
2023-03-05T00:23:31.648Z,61
2023-03-05T00:24:31.585Z,61
2023-03-05T00:25:31.615Z,61
2023-03-05T00:26:30.913Z,61
2023-03-05T00:27:31.591Z,61
2023-03-05T00:28:31.569Z,61
2023-03-05T00:29:31.818Z,61
2023-03-05T00:30:30.898Z,61
2023-03-05T00:31:31.820Z,61
2023-03-05T00:32:31.634Z,61
2023-03-05T00:33:31.619Z,61
2023-03-05T00:34:30.947Z,61
2023-03-05T00:35:31.599Z,61
2023-03-05T00:36:31.563Z,61
2023-03-05T00:37:31.625Z,61
2023-03-05T00:38:30.919Z,61
2023-03-05T00:39:31.591Z,61
2023-03-05T00:40:31.738Z,61
2023-03-05T00:41:31.610Z,61
2023-03-05T00:42:30.919Z,61
2023-03-05T00:43:31.586Z,61
2023-03-05T00:44:31.552Z,61
2023-03-05T00:45:31.687Z,61
2023-03-05T00:46:30.922Z,61
2023-03-05T00:47:31.590Z,62
2023-03-05T00:48:31.580Z,62
2023-03-05T00:49:31.610Z,62
2023-03-05T00:50:30.904Z,62
2023-03-05T00:51:31.625Z,62
2023-03-05T00:52:31.585Z,62
2023-03-05T00:53:31.606Z,62
2023-03-05T00:54:30.921Z,62
2023-03-05T00:55:31.601Z,62
2023-03-05T00:56:31.650Z,62
2023-03-05T00:57:31.677Z,62
2023-03-05T00:58:30.887Z,62
2023-03-05T00:59:31.595Z,62
2023-03-05T01:00:31.553Z,62
2023-03-05T01:01:31.702Z,62
2023-03-05T01:02:32.650Z,62
2023-03-05T01:03:31.578Z,62
2023-03-05T01:04:31.540Z,62
2023-03-05T01:05:31.642Z,62
2023-03-05T01:06:30.908Z,62
2023-03-05T01:07:31.602Z,62
2023-03-05T01:08:31.710Z,62
2023-03-05T01:09:31.596Z,62
2023-03-05T01:10:30.891Z,62
2023-03-05T01:11:31.576Z,62
2023-03-05T01:12:31.546Z,63
2023-03-05T01:13:31.584Z,62
2023-03-05T01:14:30.902Z,63
2023-03-05T01:15:31.730Z,62
2023-03-05T01:16:31.581Z,63
2023-03-05T01:17:31.587Z,63
2023-03-05T01:18:30.876Z,63
2023-03-05T01:19:31.685Z,63
2023-03-05T01:20:31.541Z,63
2023-03-05T01:21:31.585Z,63
2023-03-05T01:22:30.894Z,63
2023-03-05T01:23:31.545Z,63
2023-03-05T01:24:31.526Z,63
2023-03-05T01:25:31.612Z,63
2023-03-05T01:26:30.919Z,63
2023-03-05T01:27:31.584Z,63
2023-03-05T01:28:31.571Z,63
2023-03-05T01:29:31.720Z,63
2023-03-05T01:30:30.885Z,63
2023-03-05T01:31:31.741Z,63
2023-03-05T01:32:31.830Z,63
2023-03-05T01:33:31.630Z,63
2023-03-05T01:34:30.929Z,63
2023-03-05T01:35:31.595Z,64
2023-03-05T01:36:31.547Z,64
2023-03-05T01:37:31.543Z,64
2023-03-05T01:38:30.901Z,64
2023-03-05T01:39:31.644Z,64
2023-03-05T01:40:31.666Z,64
2023-03-05T01:41:31.902Z,64
2023-03-05T01:42:31.090Z,64
2023-03-05T01:43:31.658Z,64
2023-03-05T01:44:31.699Z,64
2023-03-05T01:45:31.782Z,64
2023-03-05T01:46:31.060Z,64
2023-03-05T01:47:31.710Z,64
2023-03-05T01:48:31.678Z,65
2023-03-05T01:49:31.799Z,65
2023-03-05T01:50:31.023Z,64
2023-03-05T01:51:31.760Z,64
2023-03-05T01:52:31.673Z,65
2023-03-05T01:53:31.736Z,64
2023-03-05T01:54:31.047Z,64
2023-03-05T01:55:31.750Z,65
2023-03-05T01:56:31.697Z,64
2023-03-05T01:57:31.720Z,65
2023-03-05T01:58:30.944Z,65
2023-03-05T01:59:31.566Z,65
2023-03-05T02:00:31.542Z,65
2023-03-05T02:01:31.608Z,65
2023-03-05T02:02:30.845Z,65
2023-03-05T02:03:31.613Z,65
2023-03-05T02:04:31.552Z,65
2023-03-05T02:05:31.579Z,65
2023-03-05T02:06:30.873Z,65
2023-03-05T02:07:31.552Z,65
2023-03-05T02:08:31.553Z,65
2023-03-05T02:09:31.552Z,65
2023-03-05T02:10:30.892Z,65
2023-03-05T02:11:31.575Z,65
2023-03-05T02:12:31.553Z,65
2023-03-05T02:13:31.576Z,65
2023-03-05T02:14:30.899Z,65
2023-03-05T02:15:31.579Z,65
2023-03-05T02:16:31.578Z,65
2023-03-05T02:17:31.556Z,65
2023-03-05T02:18:30.877Z,65
2023-03-05T02:19:31.554Z,65
2023-03-05T02:20:31.532Z,65
2023-03-05T02:21:31.554Z,65
2023-03-05T02:22:30.888Z,65
2023-03-05T02:23:31.527Z,65
2023-03-05T02:24:31.526Z,65
2023-03-05T02:25:31.579Z,65
2023-03-05T02:26:30.910Z,65
2023-03-05T02:27:31.572Z,66
2023-03-05T02:28:31.558Z,65
2023-03-05T02:29:31.562Z,66
2023-03-05T02:30:30.888Z,66
2023-03-05T02:31:31.568Z,66
2023-03-05T02:32:31.650Z,66
2023-03-05T02:33:31.578Z,66
2023-03-05T02:34:30.865Z,66
2023-03-05T02:35:31.581Z,66
2023-03-05T02:36:31.547Z,66
2023-03-05T02:37:31.592Z,66
2023-03-05T02:38:30.871Z,66
2023-03-05T02:39:31.546Z,66
2023-03-05T02:40:31.518Z,66
2023-03-05T02:41:31.559Z,66
2023-03-05T02:42:30.892Z,66
2023-03-05T02:43:31.547Z,66
2023-03-05T02:44:31.652Z,66
2023-03-05T02:45:31.614Z,66
2023-03-05T02:46:30.891Z,66
2023-03-05T02:47:31.558Z,66
2023-03-05T02:48:31.550Z,66
2023-03-05T02:49:31.568Z,66
2023-03-05T02:50:30.895Z,66
2023-03-05T02:51:31.563Z,66
2023-03-05T02:52:31.535Z,66
2023-03-05T02:53:31.561Z,67
2023-03-05T02:54:30.858Z,66
2023-03-05T02:55:31.524Z,67
2023-03-05T02:56:31.542Z,67
2023-03-05T02:57:31.553Z,67
2023-03-05T02:58:30.902Z,67
2023-03-05T02:59:31.707Z,67
2023-03-05T03:00:31.534Z,67
2023-03-05T03:01:31.655Z,67
2023-03-05T03:02:30.902Z,67
2023-03-05T03:03:31.691Z,67
2023-03-05T03:04:31.589Z,67
2023-03-05T03:05:31.590Z,67
2023-03-05T03:06:30.856Z,67
2023-03-05T03:07:31.540Z,67
2023-03-05T03:08:31.605Z,67
2023-03-05T03:09:31.563Z,67
2023-03-05T03:10:30.959Z,67
2023-03-05T03:11:31.720Z,67
2023-03-05T03:12:31.552Z,67
2023-03-05T03:13:31.678Z,68
2023-03-05T03:14:31.050Z,67
2023-03-05T03:15:31.560Z,67
2023-03-05T03:16:31.726Z,68
2023-03-05T03:17:31.556Z,68
2023-03-05T03:18:31.015Z,68
2023-03-05T03:19:31.672Z,68
2023-03-05T03:20:31.622Z,67
2023-03-05T03:21:31.553Z,67
2023-03-05T03:22:30.946Z,67
2023-03-05T03:23:31.637Z,67
2023-03-05T03:24:31.562Z,67
2023-03-05T03:25:31.550Z,67
2023-03-05T03:26:31.005Z,67
2023-03-05T03:27:31.579Z,67
2023-03-05T03:28:31.556Z,67
2023-03-05T03:29:31.577Z,68
2023-03-05T03:30:31.031Z,68
2023-03-05T03:31:31.596Z,68
2023-03-05T03:32:31.594Z,68
2023-03-05T03:33:31.607Z,68
2023-03-05T03:34:31.084Z,68
2023-03-05T03:35:31.571Z,68
2023-03-05T03:36:31.649Z,68
2023-03-05T03:37:31.665Z,68
2023-03-05T03:38:30.863Z,68
2023-03-05T03:39:31.669Z,68
2023-03-05T03:40:31.629Z,68
2023-03-05T03:41:31.600Z,68
2023-03-05T03:42:30.948Z,68
2023-03-05T03:43:31.600Z,68
2023-03-05T03:44:31.630Z,68
2023-03-05T03:45:31.649Z,68
2023-03-05T03:46:31.070Z,68
2023-03-05T03:47:31.597Z,68
2023-03-05T03:48:31.617Z,68
2023-03-05T03:49:31.564Z,68
2023-03-05T03:50:30.910Z,68
2023-03-05T03:51:31.538Z,68
2023-03-05T03:52:31.533Z,69
2023-03-05T03:53:31.558Z,68
2023-03-05T03:54:30.878Z,69
2023-03-05T03:55:31.602Z,69
2023-03-05T03:56:31.525Z,69
2023-03-05T03:57:31.595Z,69
2023-03-05T03:58:30.871Z,69
2023-03-05T03:59:31.549Z,69
2023-03-05T04:00:31.538Z,69
2023-03-05T04:01:31.588Z,69
2023-03-05T04:02:30.952Z,69
2023-03-05T04:03:31.552Z,69
2023-03-05T04:04:31.663Z,69
2023-03-05T04:05:31.558Z,69
2023-03-05T04:06:30.887Z,69
2023-03-05T04:07:31.566Z,69
2023-03-05T04:08:31.770Z,69
2023-03-05T04:09:31.552Z,69
2023-03-05T04:10:30.878Z,69
2023-03-05T04:11:31.560Z,69
2023-03-05T04:12:31.543Z,69
2023-03-05T04:13:31.548Z,69
2023-03-05T04:14:30.860Z,69
2023-03-05T04:15:31.711Z,69
2023-03-05T04:16:31.544Z,69
2023-03-05T04:17:31.579Z,69
2023-03-05T04:18:32.518Z,69
2023-03-05T04:19:31.544Z,69
2023-03-05T04:20:31.537Z,69
2023-03-05T04:21:31.575Z,69
2023-03-05T04:22:30.929Z,70
2023-03-05T04:23:31.553Z,70
2023-03-05T04:24:31.533Z,70
2023-03-05T04:25:31.517Z,70
2023-03-05T04:26:30.934Z,70
2023-03-05T04:27:31.552Z,70
2023-03-05T04:28:31.595Z,70
2023-03-05T04:29:31.514Z,70
2023-03-05T04:30:30.863Z,70
2023-03-05T04:31:31.587Z,70
2023-03-05T04:32:31.610Z,70
2023-03-05T04:33:31.547Z,70
2023-03-05T04:34:30.918Z,70
2023-03-05T04:35:31.611Z,70
2023-03-05T04:36:31.536Z,70
2023-03-05T04:37:31.517Z,70
2023-03-05T04:38:30.908Z,70
2023-03-05T04:39:31.577Z,70
2023-03-05T04:40:31.545Z,70
2023-03-05T04:41:31.615Z,70
2023-03-05T04:42:30.884Z,70
2023-03-05T04:43:31.517Z,70
2023-03-05T04:44:31.575Z,70
2023-03-05T04:45:31.541Z,70
2023-03-05T04:46:30.950Z,70
2023-03-05T04:47:31.509Z,70
2023-03-05T04:48:31.556Z,70
2023-03-05T04:49:31.507Z,70
2023-03-05T04:50:31.146Z,69
2023-03-05T04:51:31.510Z,70
2023-03-05T04:52:31.527Z,70
2023-03-05T04:53:31.542Z,70
2023-03-05T04:54:30.919Z,70
2023-03-05T04:55:31.578Z,70
2023-03-05T04:56:31.534Z,70
2023-03-05T04:57:31.550Z,70
2023-03-05T04:58:30.912Z,70
2023-03-05T04:59:31.527Z,69
2023-03-05T05:00:31.549Z,70
2023-03-05T05:01:31.551Z,70
2023-03-05T05:02:30.984Z,70
2023-03-05T05:03:31.522Z,70
2023-03-05T05:04:31.534Z,70
2023-03-05T05:05:31.575Z,70
2023-03-05T05:06:31.052Z,70
2023-03-05T05:07:31.596Z,70
2023-03-05T05:08:31.577Z,69
2023-03-05T05:09:31.532Z,69
2023-03-05T05:10:30.926Z,69
2023-03-05T05:11:31.528Z,69
2023-03-05T05:12:31.550Z,69
2023-03-05T05:13:31.561Z,69
2023-03-05T05:14:30.879Z,69
2023-03-05T05:15:31.533Z,69
2023-03-05T05:16:31.602Z,69
2023-03-05T05:17:31.528Z,69
2023-03-05T05:18:30.905Z,70
2023-03-05T05:19:31.578Z,70
2023-03-05T05:20:31.629Z,69
2023-03-05T05:21:31.518Z,70
2023-03-05T05:22:30.905Z,70
2023-03-05T05:23:31.556Z,70
2023-03-05T05:24:31.524Z,69
2023-03-05T05:25:31.531Z,69
2023-03-05T05:26:30.920Z,69
2023-03-05T05:27:31.521Z,69
2023-03-05T05:28:31.526Z,69
2023-03-05T05:29:31.529Z,70
2023-03-05T05:30:30.898Z,69
2023-03-05T05:31:31.601Z,69
2023-03-05T05:32:31.621Z,69
2023-03-05T05:33:31.531Z,69
2023-03-05T05:34:30.859Z,69
2023-03-05T05:35:31.621Z,69
2023-03-05T05:36:31.509Z,69
2023-03-05T05:37:31.534Z,69
2023-03-05T05:38:30.914Z,69
2023-03-05T05:39:31.540Z,69
2023-03-05T05:40:31.522Z,70
2023-03-05T05:41:31.553Z,69
2023-03-05T05:42:30.968Z,69
2023-03-05T05:43:31.562Z,69
2023-03-05T05:44:31.524Z,69
2023-03-05T05:45:31.748Z,69
2023-03-05T05:46:30.938Z,69
2023-03-05T05:47:31.537Z,69
2023-03-05T05:48:31.509Z,69
2023-03-05T05:49:31.594Z,69
2023-03-05T05:50:30.884Z,69
2023-03-05T05:51:31.551Z,69
2023-03-05T05:52:31.524Z,69
2023-03-05T05:53:31.588Z,69
2023-03-05T05:54:31.075Z,69
2023-03-05T05:55:31.558Z,69
2023-03-05T05:56:31.525Z,69
2023-03-05T05:57:31.568Z,69
2023-03-05T05:58:30.916Z,69
2023-03-05T05:59:31.557Z,69
2023-03-05T06:00:31.526Z,69
2023-03-05T06:01:31.582Z,69
2023-03-05T06:02:30.882Z,69
2023-03-05T06:03:31.549Z,69
2023-03-05T06:04:31.516Z,69
2023-03-05T06:05:31.547Z,69
2023-03-05T06:06:30.864Z,69
2023-03-05T06:07:31.559Z,69
2023-03-05T06:08:31.519Z,69
2023-03-05T06:09:31.543Z,69
2023-03-05T06:10:30.913Z,69
2023-03-05T06:11:31.553Z,69
2023-03-05T06:12:31.523Z,69
2023-03-05T06:13:31.536Z,69
2023-03-05T06:14:30.930Z,69
2023-03-05T06:15:31.569Z,69
2023-03-05T06:16:31.595Z,69
2023-03-05T06:17:31.523Z,69
2023-03-05T06:18:30.870Z,69
2023-03-05T06:19:31.560Z,70
2023-03-05T06:20:31.523Z,70
2023-03-05T06:21:31.560Z,70
2023-03-05T06:22:30.880Z,70
2023-03-05T06:23:31.553Z,70
2023-03-05T06:24:31.525Z,70
2023-03-05T06:25:31.534Z,70
2023-03-05T06:26:30.895Z,70
2023-03-05T06:27:31.583Z,70
2023-03-05T06:28:31.528Z,70
2023-03-05T06:29:31.531Z,70
2023-03-05T06:30:30.944Z,69
2023-03-05T06:31:31.565Z,69
2023-03-05T06:32:31.575Z,69
2023-03-05T06:33:31.528Z,69
2023-03-05T06:34:30.928Z,68
2023-03-05T06:35:31.626Z,68
2023-03-05T06:36:31.558Z,68
2023-03-05T06:37:31.536Z,68
2023-03-05T06:38:30.896Z,68
2023-03-05T06:39:31.715Z,67
2023-03-05T06:40:31.525Z,68
2023-03-05T06:41:31.582Z,68
2023-03-05T06:42:30.887Z,68
2023-03-05T06:43:31.551Z,68
2023-03-05T06:44:31.507Z,67
2023-03-05T06:45:31.539Z,67
2023-03-05T06:46:30.913Z,67
2023-03-05T06:47:31.530Z,67
2023-03-05T06:48:31.506Z,66
2023-03-05T06:49:31.525Z,66
2023-03-05T06:50:30.856Z,65
2023-03-05T06:51:31.525Z,64
2023-03-05T06:52:31.537Z,64
2023-03-05T06:53:31.695Z,64
2023-03-05T06:54:30.947Z,64
2023-03-05T06:55:31.527Z,64
2023-03-05T06:56:31.572Z,64
2023-03-05T06:57:31.519Z,63
2023-03-05T06:58:30.947Z,64
2023-03-05T06:59:31.527Z,64
2023-03-05T07:00:31.539Z,64
2023-03-05T07:01:31.536Z,65
2023-03-05T07:02:30.931Z,65
2023-03-05T07:03:31.517Z,65
2023-03-05T07:04:31.529Z,65
2023-03-05T07:05:33.326Z,65
2023-03-05T07:06:30.917Z,65
2023-03-05T07:07:31.512Z,64
2023-03-05T07:08:31.527Z,64
2023-03-05T07:09:31.548Z,63
2023-03-05T07:10:30.870Z,63
2023-03-05T07:11:31.514Z,63
2023-03-05T07:12:31.526Z,64
2023-03-05T07:13:31.549Z,64
2023-03-05T07:14:30.913Z,64
2023-03-05T07:15:31.560Z,64
2023-03-05T07:16:31.544Z,64
2023-03-05T07:17:31.567Z,63
2023-03-05T07:18:30.909Z,63
2023-03-05T07:19:31.508Z,63
2023-03-05T07:20:31.505Z,63
2023-03-05T07:21:31.539Z,63
2023-03-05T07:22:30.885Z,62
2023-03-05T07:23:31.494Z,62
2023-03-05T07:24:31.529Z,62
2023-03-05T07:25:31.531Z,61
2023-03-05T07:26:30.934Z,61
2023-03-05T07:27:31.513Z,61
2023-03-05T07:28:31.525Z,61
2023-03-05T07:29:31.539Z,61
2023-03-05T07:30:30.893Z,61
2023-03-05T07:31:31.543Z,61
2023-03-05T07:32:31.678Z,60
2023-03-05T07:33:31.585Z,59
2023-03-05T07:34:31.025Z,59
2023-03-05T07:35:31.549Z,60
2023-03-05T07:36:31.564Z,60
2023-03-05T07:37:31.539Z,60
2023-03-05T07:38:31.076Z,59
2023-03-05T07:39:31.490Z,59
2023-03-05T07:40:31.534Z,59
2023-03-05T07:41:31.524Z,59
2023-03-05T07:42:30.912Z,58
2023-03-05T07:43:31.500Z,58
2023-03-05T07:44:31.552Z,57
2023-03-05T07:45:31.539Z,57
2023-03-05T07:46:30.987Z,57
2023-03-05T07:47:31.566Z,57
2023-03-05T07:48:31.578Z,57
2023-03-05T07:49:31.521Z,56
2023-03-05T07:50:30.904Z,56
2023-03-05T07:51:31.549Z,56
2023-03-05T07:52:31.577Z,56
2023-03-05T07:53:31.525Z,56
2023-03-05T07:54:30.871Z,55
2023-03-05T07:55:31.523Z,55
2023-03-05T07:56:31.633Z,56
2023-03-05T07:57:31.505Z,56
2023-03-05T07:58:30.843Z,56
2023-03-05T07:59:31.533Z,55
2023-03-05T08:00:31.581Z,55
2023-03-05T08:01:31.552Z,55
2023-03-05T08:02:30.898Z,55
2023-03-05T08:03:31.516Z,55
2023-03-05T08:04:31.570Z,55
2023-03-05T08:05:31.530Z,54
2023-03-05T08:06:30.902Z,54
2023-03-05T08:07:31.512Z,54
2023-03-05T08:08:31.566Z,53
2023-03-05T08:09:31.525Z,53
2023-03-05T08:10:30.871Z,54
2023-03-05T08:11:31.531Z,54
2023-03-05T08:12:31.541Z,54
2023-03-05T08:13:31.505Z,54
2023-03-05T08:14:30.845Z,54
2023-03-05T08:15:31.541Z,54
2023-03-05T08:16:31.520Z,54
2023-03-05T08:17:31.560Z,54
2023-03-05T08:18:30.932Z,55
2023-03-05T08:19:31.506Z,55
2023-03-05T08:20:31.571Z,55
2023-03-05T08:21:31.498Z,56
2023-03-05T08:22:30.861Z,55
2023-03-05T08:23:31.562Z,55
2023-03-05T08:24:31.570Z,55
2023-03-05T08:25:31.635Z,54
2023-03-05T08:26:30.838Z,53
2023-03-05T08:27:31.556Z,53
2023-03-05T08:28:33.311Z,53
2023-03-05T08:29:31.512Z,53
2023-03-05T08:30:30.871Z,52
2023-03-05T08:31:31.561Z,52
2023-03-05T08:32:31.614Z,52
2023-03-05T08:33:32.554Z,53
2023-03-05T08:34:30.866Z,53
2023-03-05T08:35:31.558Z,53
2023-03-05T08:36:31.491Z,54
2023-03-05T08:37:31.528Z,54
2023-03-05T08:38:30.840Z,55
2023-03-05T08:39:31.556Z,55
2023-03-05T08:40:31.500Z,56
2023-03-05T08:41:31.547Z,56
2023-03-05T08:42:30.873Z,56
2023-03-05T08:43:31.536Z,56
2023-03-05T08:44:31.558Z,56
2023-03-05T08:45:31.647Z,56
2023-03-05T08:46:30.843Z,56
2023-03-05T08:47:31.518Z,56
2023-03-05T08:48:31.532Z,57
2023-03-05T08:49:31.556Z,57
2023-03-05T08:50:30.835Z,57
2023-03-05T08:51:31.537Z,57
2023-03-05T08:52:31.543Z,57
2023-03-05T08:53:31.559Z,57
2023-03-05T08:54:30.829Z,57
2023-03-05T08:55:31.548Z,57
2023-03-05T08:56:31.683Z,58
2023-03-05T08:57:31.550Z,58
2023-03-05T08:58:30.826Z,57
2023-03-05T08:59:31.533Z,57
2023-03-05T09:00:31.529Z,58
2023-03-05T09:01:31.567Z,58
2023-03-05T09:02:30.805Z,58
2023-03-05T09:03:31.549Z,58
2023-03-05T09:04:31.566Z,58
2023-03-05T09:05:31.515Z,58
2023-03-05T09:06:30.839Z,58
2023-03-05T09:07:31.562Z,58
2023-03-05T09:08:31.512Z,58
2023-03-05T09:09:31.599Z,58
2023-03-05T09:10:30.852Z,58
2023-03-05T09:11:31.534Z,58
2023-03-05T09:12:31.512Z,57
2023-03-05T09:13:31.498Z,58
2023-03-05T09:14:30.813Z,58
2023-03-05T09:15:31.546Z,58
2023-03-05T09:16:31.578Z,58
2023-03-05T09:17:31.537Z,58
2023-03-05T09:18:30.811Z,58
2023-03-05T09:19:31.557Z,57
2023-03-05T09:20:31.521Z,57
2023-03-05T09:21:31.515Z,57
2023-03-05T09:22:30.809Z,58
2023-03-05T09:23:31.540Z,57
2023-03-05T09:24:31.520Z,57
2023-03-05T09:25:31.568Z,57
2023-03-05T09:26:30.802Z,57
2023-03-05T09:27:31.536Z,57
2023-03-05T09:28:31.491Z,56
2023-03-05T09:29:31.546Z,56
2023-03-05T09:30:31.508Z,56
2023-03-05T09:31:31.529Z,56
2023-03-05T09:32:31.561Z,56
2023-03-05T09:33:31.492Z,55
2023-03-05T09:34:31.556Z,55
2023-03-05T09:35:31.656Z,55
2023-03-05T09:36:31.501Z,55
2023-03-05T09:37:31.500Z,54
2023-03-05T09:38:30.793Z,54
2023-03-05T09:39:31.523Z,54
2023-03-05T09:40:31.504Z,53
2023-03-05T09:41:31.493Z,53
2023-03-05T09:42:30.819Z,53
2023-03-05T09:43:31.562Z,54
2023-03-05T09:44:31.507Z,54
2023-03-05T09:45:31.584Z,53
2023-03-05T09:46:30.772Z,53
2023-03-05T09:47:31.521Z,53
2023-03-05T09:48:31.556Z,54
2023-03-05T09:49:31.524Z,54
2023-03-05T09:50:31.482Z,54
2023-03-05T09:51:31.516Z,54
2023-03-05T09:52:31.478Z,54
2023-03-05T09:53:31.494Z,55
2023-03-05T09:54:30.781Z,55
2023-03-05T09:55:31.560Z,55
2023-03-05T09:56:31.539Z,56
2023-03-05T09:57:31.474Z,56
2023-03-05T09:58:30.821Z,56
2023-03-05T09:59:31.498Z,56
2023-03-05T10:00:31.542Z,56
2023-03-05T10:01:31.496Z,55
2023-03-05T10:02:31.507Z,56
2023-03-05T10:03:31.546Z,56
2023-03-05T10:04:32.039Z,57
2023-03-05T10:05:31.503Z,57
2023-03-05T10:06:31.504Z,57
2023-03-05T10:07:31.514Z,56
2023-03-05T10:08:31.524Z,57
2023-03-05T10:09:31.509Z,57
2023-03-05T10:10:31.498Z,57
2023-03-05T10:11:31.510Z,57
2023-03-05T10:12:31.529Z,57
2023-03-05T10:13:31.490Z,57
2023-03-05T10:14:31.600Z,58
2023-03-05T10:15:32.100Z,58
2023-03-05T10:16:31.646Z,57
2023-03-05T10:17:31.506Z,57
2023-03-05T10:18:31.521Z,57
2023-03-05T10:19:31.506Z,57
2023-03-05T10:20:31.539Z,57
2023-03-05T10:21:31.517Z,57
2023-03-05T10:22:31.504Z,57
2023-03-05T10:23:31.521Z,57
2023-03-05T10:24:31.471Z,56
2023-03-05T10:25:31.509Z,56
2023-03-05T10:26:31.494Z,55
2023-03-05T10:27:31.579Z,55
2023-03-05T10:28:31.528Z,55
2023-03-05T10:29:31.493Z,54
2023-03-05T10:30:31.514Z,54
2023-03-05T10:31:31.673Z,55
2023-03-05T10:32:31.602Z,55
2023-03-05T10:33:33.501Z,55
2023-03-05T10:34:31.496Z,55
2023-03-05T10:35:31.568Z,54
2023-03-05T10:36:31.546Z,55
2023-03-05T10:37:31.518Z,54
2023-03-05T10:38:31.515Z,54
2023-03-05T10:39:31.524Z,53
2023-03-05T10:40:31.507Z,53
2023-03-05T10:41:31.541Z,53
2023-03-05T10:42:31.477Z,53
2023-03-05T10:43:31.514Z,53
2023-03-05T10:44:31.495Z,52
2023-03-05T10:45:31.599Z,52
2023-03-05T10:46:31.564Z,52
2023-03-05T10:47:31.528Z,53
2023-03-05T10:48:31.521Z,53
2023-03-05T10:49:31.506Z,54
2023-03-05T10:50:31.471Z,54
2023-03-05T10:51:31.540Z,53
2023-03-05T10:52:31.574Z,53
2023-03-05T10:53:31.521Z,54
2023-03-05T10:54:31.493Z,54
2023-03-05T10:55:31.516Z,53
2023-03-05T10:56:31.513Z,54
2023-03-05T10:57:31.620Z,54
2023-03-05T10:58:31.501Z,53
2023-03-05T10:59:31.528Z,53
2023-03-05T11:00:31.487Z,52
2023-03-05T11:01:31.576Z,54
2023-03-05T11:02:31.598Z,54
2023-03-05T11:03:31.521Z,53
2023-03-05T11:04:31.512Z,53
2023-03-05T11:05:31.495Z,52
2023-03-05T11:06:31.453Z,52
2023-03-05T11:07:31.511Z,52
2023-03-05T11:08:31.507Z,53
2023-03-05T11:09:31.508Z,52
2023-03-05T11:10:31.459Z,53
2023-03-05T11:11:31.521Z,53
2023-03-05T11:12:31.492Z,53
2023-03-05T11:13:31.485Z,53
2023-03-05T11:14:32.534Z,54
2023-03-05T11:15:31.559Z,53
2023-03-05T11:16:31.492Z,52
2023-03-05T11:17:31.534Z,53
2023-03-05T11:18:31.477Z,53
2023-03-05T11:19:31.520Z,53
2023-03-05T11:20:31.577Z,53
2023-03-05T11:21:31.478Z,53
2023-03-05T11:22:31.486Z,53
2023-03-05T11:23:31.504Z,53
2023-03-05T11:24:31.473Z,53
2023-03-05T11:25:31.549Z,52
2023-03-05T11:26:31.519Z,52
2023-03-05T11:27:31.483Z,51
2023-03-05T11:28:33.728Z,52
2023-03-05T11:29:31.509Z,52
2023-03-05T11:30:31.710Z,52
2023-03-05T11:31:31.638Z,52
2023-03-05T11:32:31.593Z,52
2023-03-05T11:33:31.486Z,52
2023-03-05T11:34:31.552Z,52
2023-03-05T11:35:31.515Z,52
2023-03-05T11:36:31.484Z,52
2023-03-05T11:37:31.467Z,52
2023-03-05T11:38:33.519Z,52
2023-03-05T11:39:31.511Z,52
2023-03-05T11:40:31.509Z,51
2023-03-05T11:41:31.503Z,51
2023-03-05T11:42:31.497Z,51
2023-03-05T11:43:31.519Z,51
2023-03-05T11:44:31.497Z,52
2023-03-05T11:45:31.480Z,51
2023-03-05T11:46:31.548Z,52
2023-03-05T11:47:31.519Z,52
2023-03-05T11:48:31.540Z,52
2023-03-05T11:49:34.117Z,52
2023-03-05T11:50:31.473Z,52
2023-03-05T11:51:31.512Z,51
2023-03-05T11:52:31.507Z,52
2023-03-05T11:53:31.502Z,51
2023-03-05T11:54:31.552Z,51
2023-03-05T11:55:31.520Z,51
2023-03-05T11:56:31.495Z,51
2023-03-05T11:57:31.481Z,52
2023-03-05T11:58:31.612Z,52
2023-03-05T11:59:31.524Z,52
2023-03-05T12:00:31.517Z,53
2023-03-05T12:01:31.471Z,52
2023-03-05T12:02:31.495Z,52
2023-03-05T12:03:31.613Z,52
2023-03-05T12:04:31.508Z,53
2023-03-05T12:05:31.537Z,53
2023-03-05T12:06:31.498Z,53
2023-03-05T12:07:31.535Z,53
2023-03-05T12:08:31.495Z,53
2023-03-05T12:09:31.482Z,53
2023-03-05T12:10:31.483Z,53
2023-03-05T12:11:31.516Z,52
2023-03-05T12:12:31.523Z,53
2023-03-05T12:13:31.482Z,53
2023-03-05T12:14:31.461Z,53
2023-03-05T12:15:31.520Z,54
2023-03-05T12:16:31.569Z,54
2023-03-05T12:17:31.487Z,54
2023-03-05T12:18:31.469Z,54
2023-03-05T12:19:31.507Z,53
2023-03-05T12:20:31.569Z,54
2023-03-05T12:21:31.470Z,53
2023-03-05T12:22:31.510Z,53
2023-03-05T12:23:31.473Z,54
2023-03-05T12:24:31.514Z,54
2023-03-05T12:25:31.469Z,54
2023-03-05T12:26:31.505Z,54
2023-03-05T12:27:31.470Z,54
2023-03-05T12:28:31.492Z,54
2023-03-05T12:29:31.461Z,54
2023-03-05T12:30:31.493Z,54
2023-03-05T12:31:31.575Z,54
2023-03-05T12:32:31.644Z,54
2023-03-05T12:33:31.472Z,55
2023-03-05T12:34:31.503Z,55
2023-03-05T12:35:31.525Z,55
2023-03-05T12:36:31.495Z,55
2023-03-05T12:37:31.472Z,55
2023-03-05T12:38:31.558Z,55
2023-03-05T12:39:31.485Z,55
2023-03-05T12:40:31.517Z,55
2023-03-05T12:41:32.971Z,56
2023-03-05T12:42:31.559Z,56
2023-03-05T12:43:31.479Z,55
2023-03-05T12:44:31.517Z,56
2023-03-05T12:45:31.483Z,55
2023-03-05T12:46:31.541Z,56
2023-03-05T12:47:31.516Z,56
2023-03-05T12:48:31.516Z,57
2023-03-05T12:49:31.474Z,57
2023-03-05T12:50:31.509Z,57
2023-03-05T12:51:31.538Z,58
2023-03-05T12:52:31.526Z,58
2023-03-05T12:53:31.462Z,58
2023-03-05T12:54:31.608Z,58
2023-03-05T12:55:31.484Z,58
2023-03-05T12:56:31.499Z,59
2023-03-05T12:57:31.526Z,60
2023-03-05T12:58:31.487Z,61
2023-03-05T12:59:31.450Z,62
2023-03-05T13:00:31.585Z,63
2023-03-05T13:01:31.550Z,64
2023-03-05T13:02:31.505Z,65
2023-03-05T13:03:31.467Z,65
2023-03-05T13:04:31.506Z,65
2023-03-05T13:05:31.527Z,65
2023-03-05T13:06:31.486Z,67
2023-03-05T13:07:31.476Z,67
2023-03-05T13:08:31.525Z,68
2023-03-05T13:09:31.485Z,68
2023-03-05T13:10:31.510Z,68
2023-03-05T13:11:31.468Z,69
2023-03-05T13:12:31.489Z,69
2023-03-05T13:13:31.452Z,69
2023-03-05T13:14:31.478Z,69
2023-03-05T13:15:31.477Z,68
2023-03-05T13:16:31.645Z,68
2023-03-05T13:17:31.442Z,69
2023-03-05T13:18:31.481Z,68
2023-03-05T13:19:31.480Z,69
2023-03-05T13:20:31.645Z,69
2023-03-05T13:21:31.480Z,69
2023-03-05T13:22:31.497Z,69
2023-03-05T13:23:31.462Z,69
2023-03-05T13:24:31.510Z,69
2023-03-05T13:25:31.483Z,70
2023-03-05T13:26:31.524Z,69
2023-03-05T13:27:31.511Z,69
2023-03-05T13:28:31.469Z,69
2023-03-05T13:29:31.504Z,70
2023-03-05T13:30:33.060Z,70
2023-03-05T13:31:31.533Z,70
2023-03-05T13:32:31.584Z,70
2023-03-05T13:33:31.511Z,70
2023-03-05T13:34:44.572Z,70
2023-03-05T13:35:31.514Z,68
2023-03-05T13:36:31.488Z,68
2023-03-05T13:37:31.511Z,68
2023-03-05T13:38:31.464Z,68
2023-03-05T13:39:31.511Z,68
2023-03-05T13:40:31.491Z,68
2023-03-05T13:41:31.491Z,69
2023-03-05T13:42:31.495Z,69
2023-03-05T13:43:31.462Z,69
2023-03-05T13:44:31.478Z,69
2023-03-05T13:45:31.691Z,69
2023-03-05T13:46:31.491Z,69
2023-03-05T13:47:31.491Z,68
2023-03-05T13:48:31.453Z,68
2023-03-05T13:49:31.495Z,68
2023-03-05T13:50:31.526Z,68
2023-03-05T13:51:31.486Z,69
2023-03-05T13:52:31.453Z,69
2023-03-05T13:53:31.504Z,69
2023-03-05T13:54:31.438Z,70
2023-03-05T13:55:31.473Z,70
2023-03-05T13:56:31.467Z,70
2023-03-05T13:57:31.505Z,70
2023-03-05T13:58:31.442Z,71
2023-03-05T13:59:31.508Z,71
2023-03-05T14:00:31.451Z,71
2023-03-05T14:01:31.606Z,71
2023-03-05T14:02:33.342Z,72
2023-03-05T14:03:32.308Z,72
2023-03-05T14:04:31.502Z,73
2023-03-05T14:05:31.513Z,73
2023-03-05T14:06:31.453Z,74
2023-03-05T14:07:31.482Z,74
2023-03-05T14:08:31.467Z,74
2023-03-05T14:09:31.503Z,74
2023-03-05T14:10:31.473Z,74
2023-03-05T14:11:31.452Z,74
2023-03-05T14:12:31.441Z,74
2023-03-05T14:13:31.500Z,73
2023-03-05T14:14:31.449Z,72
2023-03-05T14:15:31.522Z,71